Karl Stefan Memorial Airport Norfolk US
ICAO: KOFK
IATA: OFK
Category: Medium
Scheduled Services: No

Elevation: 1573 ft
TransAlt. 18000 ft.

Airport Communications:
ASOS:119.025
COLUMBUS RDO:122.15
CTAF/UNICOM:122.7

KOFK Zoom In..

If you have problems with the map follow the link
https://www.worldairports.se/pages/airport.php?
ICAO=KOFK

Runways:

(A) RW 01 length 5800 ft width 100 ft
ILS 111.50 / hdg 14

(B) RW 14 length 5800 ft width 100 ft
---- / hdg 137

(C) RW 19 length 5800 ft width 100 ft
---- / hdg 194

(D) RW 32 length 5800 ft width 100 ft
---- / hdg 317

Location; KOFK
Day. 22 / Time. 10.56 Zulu
* Altimeter: 29.82
* Temperature: 02° c. 35.6°f.
* Wind from: 180° Speed 15 kn with Gusts up to 22 kn.
Dewpoint: -01° c.
Visibility: 8 Statute Miles.
Clouds: Overcast 900 ft.

KOFK 221056Z AUTO 18015G22KT 8SM UP OVC009 02/M01 A2982 RMK AO2 RAE00B33E50UPB00E33B36E37B50 CIG 007V011 SLP114 P0001 T00171006


Wind From 180°
Speed 15 kn.

 
 
jpsmedia worldairports.se 2020   terms of use